Provisional Data: West Branch Owego Creek near Speedsville, NY


Please select a monitoring station.
Please select start date.
Please select start date.

Toggle Unit: C/F Toggle Unit: C/F
Sample Time Temperature (C) Temperature (F) Specific Conductivity (mS/cm) pH   Turbidity (NTU+) DO (mg/L)
8/1/2022 12:00:00 AM 17.1 62.78 0.175 6.43 24.59 3.42
8/1/2022 12:15:00 AM 17.04 62.672 0.175 6.42 23.92 3.29
8/1/2022 12:30:00 AM 17.04 62.672 0.174 6.42 34.24 3.33
8/1/2022 12:45:00 AM 16.98 62.564 0.174 6.4 22.4 3.13
8/1/2022 1:00:00 AM 16.93 62.474 0.174 6.39 24.45 3.03
8/1/2022 1:15:00 AM 16.9 62.42 0.173 6.39 20.08 3.16
8/1/2022 1:30:00 AM 16.89 62.402 0.173 6.39 19.36 3.07
8/1/2022 1:45:00 AM 16.8 62.24 0.173 6.38 17.25 2.98
8/1/2022 2:00:00 AM 16.8 62.24 0.173 6.38 17.28 2.96
8/1/2022 2:15:00 AM 16.72 62.096 0.173 6.4 18.13 3.21
8/1/2022 2:30:00 AM 16.66 61.988 0.172 6.4 15.99 3.45
8/1/2022 2:45:00 AM 16.64 61.952 0.172 6.39 15.63 3.45
8/1/2022 3:00:00 AM 16.6 61.88 0.172 6.4 14.84 3.33
8/1/2022 3:15:00 AM 16.55 61.79 0.172 6.39 13.82 3.2
8/1/2022 3:30:00 AM 16.48 61.664 0.171 6.39 12.2 3.28
8/1/2022 3:45:00 AM 16.44 61.592 0.17 6.38 12.52 3.24
8/1/2022 4:00:00 AM 16.35 61.43 0.172 6.39 12.19 3.25
8/1/2022 4:15:00 AM 16.35 61.43 0.171 6.4 13.53 3.27
8/1/2022 4:30:00 AM 16.35 61.43 0.172 6.41 14.27 3.41
8/1/2022 4:45:00 AM 16.3 61.34 0.171 6.4 12.35 3.43
8/1/2022 5:00:00 AM 16.26 61.268 0.171 6.41 14.66 3.14
8/1/2022 5:15:00 AM 16.25 61.25 0.172 6.4 13.58 3.14
8/1/2022 5:30:00 AM 16.22 61.196 0.172 6.41 13.79 3.34
8/1/2022 5:45:00 AM 16.13 61.034 0.172 6.41 12.41 3.45
8/1/2022 6:00:00 AM 16.11 60.998 0.172 6.41 12.78 3.23
8/1/2022 6:15:00 AM 16.07 60.926 0.172 6.42 11.88 3.29
8/1/2022 6:30:00 AM 16.05 60.89 0.172 6.42 12.19 3.16
8/1/2022 6:45:00 AM 15.97 60.746 0.172 6.42 13.95 3.38
8/1/2022 7:00:00 AM 15.96 60.728 0.172 6.42 12.85 3.23
8/1/2022 7:15:00 AM 15.95 60.71 0.172 6.42 12.51 3.34
8/1/2022 7:30:00 AM 15.9 60.62 0.172 6.41 11.44 3.29
8/1/2022 7:45:00 AM 15.9 60.62 0.172 6.41 12.27 3.17
8/1/2022 8:00:00 AM 15.86 60.548 0.172 6.41 10.65 3.18
8/1/2022 8:15:00 AM 15.84 60.512 0.172 6.4 10.59 3.06
8/1/2022 8:30:00 AM 15.81 60.458 0.171 6.42 10.16 3.3
8/1/2022 8:45:00 AM 15.8 60.44 0.171 6.4 10.12 3.18
8/1/2022 9:00:00 AM 15.79 60.422 0.171 6.4 10.21 3.13
8/1/2022 9:15:00 AM 15.79 60.422 0.171 6.4 10.58 3.15
8/1/2022 9:30:00 AM 15.77 60.386 0.171 6.4 10.37 2.99
8/1/2022 9:45:00 AM 15.78 60.404 0.171 6.41 11.28 3.08
8/1/2022 10:00:00 AM 15.78 60.404 0.171 6.4 10.38 3.05
8/1/2022 10:15:00 AM 15.75 60.35 0.171 6.41 10.04 3.13
8/1/2022 10:30:00 AM 15.79 60.422 0.171 6.41 9.87 3.21
8/1/2022 10:45:00 AM 15.81 60.458 0.172 6.4 9.61 3.11
8/1/2022 11:00:00 AM 15.83 60.494 0.172 6.4 9.42 2.97
8/1/2022 11:15:00 AM 15.8 60.44 0.172 6.39 9.58 2.98
8/1/2022 11:30:00 AM 15.86 60.548 0.172 6.41 9.52 3.01
8/1/2022 11:45:00 AM 15.84 60.512 0.173 6.41 9.41 3.18
8/1/2022 12:00:00 PM 15.79 60.422 0.173 6.41 10.16 2.88
8/1/2022 12:15:00 PM 15.8 60.44 0.173 6.41 9.53 2.92
8/1/2022 12:30:00 PM 15.89 60.602 0.174 6.41 9.81 2.89
8/1/2022 12:45:00 PM 15.87 60.566 0.174 6.41 9.71 3.04
8/1/2022 1:00:00 PM 15.98 60.764 0.175 6.41 9.37 2.91
8/1/2022 1:15:00 PM 16.22 61.196 0.178 6.43 8.28 3.04
8/1/2022 1:30:00 PM 16.43 61.574 0.178 6.43 8.13 3.07
8/1/2022 1:45:00 PM 16.54 61.772 0.178 6.44 7.87 3.3
8/1/2022 2:00:00 PM 16.71 62.078 0.178 6.44 6.99 3.18
8/1/2022 2:15:00 PM 16.86 62.348 0.179 6.44 7.99 3.34
8/1/2022 2:30:00 PM 17.04 62.672 0.179 6.45 7.27 3.46
8/1/2022 2:45:00 PM 17.23 63.014 0.179 6.45 8.58 3.57
8/1/2022 3:00:00 PM 17.42 63.356 0.179 6.45 8.12 3.59
8/1/2022 3:15:00 PM 17.39 63.302 0.179 6.45 6.56 3.6
8/1/2022 3:30:00 PM 17.52 63.536 0.179 6.46 6.12 3.76
8/1/2022 3:45:00 PM 17.57 63.626 0.179 6.47 6.02 3.87
8/1/2022 4:00:00 PM 17.65 63.77 0.18 6.48 6.23 3.99
8/1/2022 4:15:00 PM 17.72 63.896 0.18 6.48 5.94 3.9
8/1/2022 4:30:00 PM 17.73 63.914 0.18 6.48 6.59 3.88
8/1/2022 4:45:00 PM 17.69 63.842 0.18 6.47 6.46 3.73
8/1/2022 5:00:00 PM 17.69 63.842 0.18 6.47 7.11 3.6
8/1/2022 5:15:00 PM 17.66 63.788 0.179 6.46 7.11 3.61
8/1/2022 5:30:00 PM 17.69 63.842 0.177 6.45 7.37 3.51
8/1/2022 5:45:00 PM 17.63 63.734 0.176 6.44 6.71 3.56
8/1/2022 6:00:00 PM 17.7 63.86 0.175 6.43 6.54 3.51
8/1/2022 6:15:00 PM 17.63 63.734 0.175 6.43 6.01 3.49
8/1/2022 6:30:00 PM 17.61 63.698 0.175 6.43 9.27 3.34
8/1/2022 6:45:00 PM 17.71 63.878 0.174 6.42 6.62 3.31
8/1/2022 7:00:00 PM 17.58 63.644 0.173 6.41 6.06 3.26
8/1/2022 7:15:00 PM 17.45 63.41 0.174 6.41 6.85 3.15
8/1/2022 7:30:00 PM 17.48 63.464 0.174 6.41 6.04 3.18
8/1/2022 7:45:00 PM 17.52 63.536 0.173 6.4 6.01 3.07
8/1/2022 8:00:00 PM 17.49 63.482 0.173 6.39 6.51 2.94
8/1/2022 8:15:00 PM 17.42 63.356 0.173 6.39 6.2 2.79
8/1/2022 8:30:00 PM 17.43 63.374 0.172 6.39 6.05 2.96
8/1/2022 8:45:00 PM 17.39 63.302 0.172 6.38 6.46 2.88
8/1/2022 9:00:00 PM 17.4 63.32 0.173 6.39 6.12 3.04
8/1/2022 9:15:00 PM 17.35 63.23 0.172 6.38 6.24 2.84
8/1/2022 9:30:00 PM 17.35 63.23 0.172 6.38 6.13 2.74
8/1/2022 9:45:00 PM 17.35 63.23 0.172 6.37 6.82 2.76
8/1/2022 10:00:00 PM 17.33 63.194 0.171 6.37 6.71 2.8
8/1/2022 10:15:00 PM 17.31 63.158 0.171 6.37 6.33 2.82
8/1/2022 10:30:00 PM 17.29 63.122 0.17 6.36 6.54 2.74
8/1/2022 10:45:00 PM 17.26 63.068 0.171 6.36 5.82 2.8
8/1/2022 11:00:00 PM 17.29 63.122 0.171 6.37 6.01 2.85
8/1/2022 11:15:00 PM 17.22 62.996 0.17 6.36 5.51 2.77
8/1/2022 11:30:00 PM 17.2 62.96 0.17 6.35 5.58 2.74
8/1/2022 11:45:00 PM 17.19 62.942 0.171 6.35 5.52 2.66
8/2/2022 12:00:00 AM 17.18 62.924 0.17 6.35 5.52 2.59
8/2/2022 12:15:00 AM 17.12 62.816 0.17 6.34 5.91 2.54
8/2/2022 12:30:00 AM 17.13 62.834 0.17 6.34 5.38 2.51
8/2/2022 12:45:00 AM 17.17 62.906 0.17 6.34 5.55 2.59
8/2/2022 1:00:00 AM 17.26 63.068 0.171 6.35 5.34 2.63
8/2/2022 1:15:00 AM 17.16 62.888 0.171 6.35 5.66 2.7
8/2/2022 1:30:00 AM 17.13 62.834 0.171 6.35 5.33 2.61
8/2/2022 1:45:00 AM 17.16 62.888 0.172 6.35 5.31 2.49
8/2/2022 2:00:00 AM 17.09 62.762 0.172 6.36 5.54 2.41
8/2/2022 2:15:00 AM 17.11 62.798 0.171 6.35 5.83 2.39
8/2/2022 2:30:00 AM 17.07 62.726 0.172 6.35 5.39 2.42
8/2/2022 2:45:00 AM 17.04 62.672 0.171 6.35 5.58 2.44
8/2/2022 3:00:00 AM 17.03 62.654 0.171 6.34 5.51 2.34
8/2/2022 3:15:00 AM 17 62.6 0.171 6.35 5.54 2.46
8/2/2022 3:30:00 AM 16.98 62.564 0.171 6.34 5.66 2.29
8/2/2022 3:45:00 AM 16.96 62.528 0.171 6.34 5.32 2.15
8/2/2022 4:00:00 AM 16.91 62.438 0.171 6.35 5.58 2.25
8/2/2022 4:15:00 AM 16.9 62.42 0.171 6.34 5.31 2.21
8/2/2022 4:30:00 AM 16.85 62.33 0.172 6.34 5.22 2.15
8/2/2022 4:45:00 AM 16.81 62.258 0.172 6.34 5.59 2.1
8/2/2022 5:00:00 AM 16.79 62.222 0.172 6.34 5.43 2.06
8/2/2022 5:15:00 AM 16.82 62.276 0.173 6.35 5.34 2.24
8/2/2022 5:30:00 AM 16.86 62.348 0.174 6.36 7.96 2.31
8/2/2022 5:45:00 AM 16.79 62.222 0.173 6.35 5.32 2.11
8/2/2022 6:00:00 AM 16.71 62.078 0.172 6.35 6.3 2.23
8/2/2022 6:15:00 AM 16.7 62.06 0.172 6.36 5.98 2.23
8/2/2022 6:30:00 AM 16.65 61.97 0.171 6.36 5.75 2.65
8/2/2022 6:45:00 AM 16.61 61.898 0.171 6.36 6.11 2.56
8/2/2022 7:00:00 AM 16.6 61.88 0.171 6.36 5.44 2.48
8/2/2022 7:15:00 AM 16.58 61.844 0.171 6.35 5.34 2.52
8/2/2022 7:30:00 AM 16.57 61.826 0.17 6.35 5.05 2.44
8/2/2022 7:45:00 AM 16.56 61.808 0.171 6.35 4.91 2.29
8/2/2022 8:00:00 AM 16.61 61.898 0.172 6.36 5.67 2.42
8/2/2022 8:15:00 AM 16.55 61.79 0.171 6.35 5.15 2.4
8/2/2022 8:30:00 AM 16.55 61.79 0.172 6.35 5.12 2.3
8/2/2022 8:45:00 AM 16.52 61.736 0.171 6.35 5.19 2.28
8/2/2022 9:00:00 AM 16.53 61.754 0.172 6.36 5.14 2.41
8/2/2022 9:15:00 AM 16.59 61.862 0.172 6.36 4.88 2.3
8/2/2022 9:30:00 AM 16.48 61.664 0.172 6.35 4.67 2.21
8/2/2022 9:45:00 AM 16.57 61.826 0.172 6.35 5.97 2.1
8/2/2022 10:00:00 AM 16.48 61.664 0.171 6.35 4.92 2.31
8/2/2022 10:15:00 AM 16.55 61.79 0.171 6.35 4.91 2.42
8/2/2022 10:30:00 AM 16.53 61.754 0.172 6.35 5.44 2.2
8/2/2022 10:45:00 AM 16.48 61.664 0.172 6.35 5.14 2.21
8/2/2022 11:00:00 AM 16.64 61.952 0.173 6.36 5.11 2.32
8/2/2022 11:15:00 AM 16.55 61.79 0.172 6.36 5.08 2.32
8/2/2022 11:30:00 AM 16.61 61.898 0.173 6.36 5.62 2.31
8/2/2022 11:45:00 AM 16.64 61.952 0.174 6.36 5.06 2.33
8/2/2022 12:00:00 PM 16.69 62.042 0.174 6.37 4.72 2.34
8/2/2022 12:15:00 PM 16.71 62.078 0.174 6.37 4.96 2.42
8/2/2022 12:30:00 PM 16.52 61.736 0.172 6.36 4.55 2.41
8/2/2022 12:45:00 PM 16.66 61.988 0.173 6.37 4.83 2.46
8/2/2022 1:00:00 PM 16.74 62.132 0.173 6.37 4.6 2.6
8/2/2022 1:15:00 PM 16.87 62.366 0.174 6.38 4.67 2.7
8/2/2022 1:30:00 PM 17.15 62.87 0.176 6.4 5.13 2.71
8/2/2022 1:45:00 PM 17.2 62.96 0.176 6.39 4.85 3.15
8/2/2022 2:00:00 PM 17.45 63.41 0.177 6.4 4.53 2.87
8/2/2022 2:15:00 PM 17.69 63.842 0.176 6.39 5.04 3.1
8/2/2022 2:30:00 PM 17.83 64.094 0.175 6.4 4.36 3.35
8/2/2022 2:45:00 PM 18 64.4 0.173 6.4 4.39 3.5
8/2/2022 3:00:00 PM 18.11 64.598 0.171 6.39 4.19 3.65
8/2/2022 3:15:00 PM 18.43 65.174 0.17 6.4 3.99 4.01
8/2/2022 3:30:00 PM 18.31 64.958 0.169 6.4 4.57 4.04
8/2/2022 3:45:00 PM 18.46 65.228 0.166 6.4 4.2 4.04
8/2/2022 4:00:00 PM 18.57 65.426 0.171 6.41 4.33 3.91
8/2/2022 4:15:00 PM 18.63 65.534 0.17 6.41 3.97 3.94
8/2/2022 4:30:00 PM 18.87 65.966 0.171 6.41 4.02 3.72
8/2/2022 4:45:00 PM 18.76 65.768 0.17 6.41 4.16 3.83
8/2/2022 5:00:00 PM 18.75 65.75 0.169 6.4 3.88 3.71
8/2/2022 5:15:00 PM 18.79 65.82201 0.17 6.4 3.77 3.77
8/2/2022 5:30:00 PM 18.67 65.606 0.169 6.39 4.28 3.66
8/2/2022 5:45:00 PM 18.55 65.39 0.168 6.38 4.15 3.37
8/2/2022 6:00:00 PM 18.65 65.57 0.168 6.38 3.92 3.45
8/2/2022 6:15:00 PM 18.68 65.624 0.169 6.38 4.09 3.13
8/2/2022 6:30:00 PM 18.55 65.39 0.169 6.37 4.15 2.99
8/2/2022 6:45:00 PM 18.56 65.408 0.169 6.38 3.91 3.12
8/2/2022 7:00:00 PM 18.43 65.174 0.17 6.37 4.32 3.08
8/2/2022 7:15:00 PM 18.46 65.228 0.169 6.37 4.07 2.98
8/2/2022 7:30:00 PM 18.5 65.3 0.17 6.37 4.72 2.75
8/2/2022 7:45:00 PM 18.58 65.444 0.169 6.37 4.27 2.9
8/2/2022 8:00:00 PM 18.45 65.21 0.169 6.36 3.79 2.66
8/2/2022 8:15:00 PM 18.49 65.282 0.169 6.36 3.89 2.66
8/2/2022 8:30:00 PM 18.41 65.138 0.169 6.35 4.17 2.68
8/2/2022 8:45:00 PM 18.3 64.94 0.168 6.35 4.12 2.72
8/2/2022 9:00:00 PM 18.3 64.94 0.168 6.35 4.03 2.67
8/2/2022 9:15:00 PM 18.28 64.904 0.169 6.35 4.15 2.62
8/2/2022 9:30:00 PM 18.31 64.958 0.169 6.36 4.35 2.61
8/2/2022 9:45:00 PM 18.24 64.832 0.169 6.35 4.49 2.56
8/2/2022 10:00:00 PM 18.19 64.742 0.17 6.36 4.34 2.61
8/2/2022 10:15:00 PM 18.21 64.778 0.17 6.35 4.08 2.52
8/2/2022 10:30:00 PM 18.2 64.76 0.169 6.35 4.11 2.51
8/2/2022 10:45:00 PM 18.18 64.724 0.169 6.35 3.87 2.56
8/2/2022 11:00:00 PM 18.14 64.652 0.169 6.35 3.97 2.48
8/2/2022 11:15:00 PM 18.09 64.562 0.169 6.34 4 2.38
8/2/2022 11:30:00 PM 18.07 64.526 0.17 6.35 4.08 2.38
8/2/2022 11:45:00 PM 18.06 64.508 0.17 6.34 4.11 2.22
8/3/2022 12:00:00 AM 17.99 64.382 0.17 6.34 4.18 2.24
8/3/2022 12:15:00 AM 17.94 64.292 0.17 6.34 4.37 2.09
8/3/2022 12:30:00 AM 17.94 64.292 0.17 6.34 4.07 2.26
8/3/2022 12:45:00 AM 17.9 64.22 0.17 6.34 4.2 2.13
8/3/2022 1:00:00 AM 17.91 64.238 0.17 6.34 4.34 2.17
8/3/2022 1:15:00 AM 17.85 64.13 0.17 6.35 4 2.11
8/3/2022 1:30:00 AM 17.78 64.004 0.171 6.33 4.06 1.99
8/3/2022 1:45:00 AM 17.73 63.914 0.171 6.33 3.94 2.1
8/3/2022 2:00:00 AM 17.72 63.896 0.172 6.33 3.93 2.07
8/3/2022 2:15:00 AM 17.68 63.824 0.172 6.34 3.89 2.02
8/3/2022 2:30:00 AM 17.62 63.716 0.172 6.34 3.92 2.06
8/3/2022 2:45:00 AM 17.55 63.59 0.173 6.36 4.07 2.04
8/3/2022 3:00:00 AM 17.52 63.536 0.174 6.36 4.17 2.18
8/3/2022 3:15:00 AM 17.49 63.482 0.174 6.38 4.09 2.3
8/3/2022 3:30:00 AM 17.4 63.32 0.174 6.37 3.95 2.28
8/3/2022 3:45:00 AM 17.37 63.266 0.174 6.37 4.2 2.22
8/3/2022 4:00:00 AM 17.34 63.212 0.173 6.38 3.88 2.32
8/3/2022 4:15:00 AM 17.27 63.086 0.173 6.38 4.2 2.3
8/3/2022 4:30:00 AM 17.21 62.978 0.172 6.38 3.99 2.44
8/3/2022 4:45:00 AM 17.17 62.906 0.172 6.39 4.06 2.89
8/3/2022 5:00:00 AM 17.11 62.798 0.172 6.38 4.29 2.52
8/3/2022 5:15:00 AM 17.03 62.654 0.172 6.4 4.06 2.65
8/3/2022 5:30:00 AM 17.01 62.618 0.173 6.4 4.1 2.52
8/3/2022 5:45:00 AM 16.94 62.492 0.172 6.41 4.34 2.59
8/3/2022 6:00:00 AM 16.91 62.438 0.173 6.42 4.57 2.74
8/3/2022 6:15:00 AM 16.85 62.33 0.173 6.41 4.49 2.75
8/3/2022 6:30:00 AM 16.78 62.204 0.172 6.39 4.02 2.47
8/3/2022 6:45:00 AM 16.73 62.114 0.172 6.39 4.07 2.5
8/3/2022 7:00:00 AM 16.71 62.078 0.172 6.42 4.13 2.69
8/3/2022 7:15:00 AM 16.66 61.988 0.171 6.39 4.1 2.64
8/3/2022 7:30:00 AM 16.63 61.934 0.17 6.4 3.89 2.62
8/3/2022 7:45:00 AM 16.6 61.88 0.17 6.4 4.3 2.8
8/3/2022 8:00:00 AM 16.57 61.826 0.17 6.39 4.36 2.7
8/3/2022 8:15:00 AM 16.6 61.88 0.17 6.39 4.35 2.54
8/3/2022 8:30:00 AM 16.53 61.754 0.17 6.38 4.13 2.57
8/3/2022 8:45:00 AM 16.59 61.862 0.171 6.4 4.89 2.64
8/3/2022 9:00:00 AM 16.48 61.664 0.171 6.4 4.7 2.61
8/3/2022 9:15:00 AM 16.51 61.718 0.17 6.4 4.35 2.65
8/3/2022 9:30:00 AM 16.48 61.664 0.17 6.41 6.42 3.01
8/3/2022 9:45:00 AM 16.49 61.682 0.171 6.41 8.88 2.76
8/3/2022 10:00:00 AM 16.45 61.61 0.171 6.41 7.5 2.9
8/3/2022 10:15:00 AM 16.47 61.646 0.171 6.42 6.07 2.91
8/3/2022 10:30:00 AM 16.43 61.574 0.171 6.42 5.44 3.06
8/3/2022 10:45:00 AM 16.41 61.538 0.171 6.42 5.5 2.94
8/3/2022 11:00:00 AM 16.49 61.682 0.171 6.42 4.55 3.04
8/3/2022 11:15:00 AM 16.47 61.646 0.171 6.42 5.38 3.02
8/3/2022 11:30:00 AM 16.47 61.646 0.171 6.42 5.02 3.02
8/3/2022 11:45:00 AM 16.48 61.664 0.171 6.42 4.77 2.97
8/3/2022 12:00:00 PM 16.46 61.628 0.172 6.41 4.82 2.88
8/3/2022 12:15:00 PM 16.5 61.7 0.173 6.41 4.63 2.83
8/3/2022 12:30:00 PM 16.56 61.808 0.173 6.41 4.94 2.84
8/3/2022 12:45:00 PM 16.6 61.88 0.173 6.43 5.04 2.83
8/3/2022 1:00:00 PM 16.75 62.15 0.176 6.44 4.73 2.92
8/3/2022 1:15:00 PM 16.93 62.474 0.18 6.45 4.95 2.81
8/3/2022 1:30:00 PM 17.1 62.78 0.18 6.48 4.47 3.28
8/3/2022 1:45:00 PM 17.38 63.284 0.176 6.48 4.25 3.36
8/3/2022 2:00:00 PM 17.53 63.554 0.176 6.47 3.93 3.71
8/3/2022 2:15:00 PM 17.71 63.878 0.173 6.46 3.87 3.87
8/3/2022 2:30:00 PM 17.84 64.112 0.172 6.46 3.62 3.88
8/3/2022 2:45:00 PM 18.01 64.418 0.171 6.44 3.7 3.99
8/3/2022 3:00:00 PM 18.17 64.706 0.171 6.43 3.46 3.86
8/3/2022 3:15:00 PM 18.31 64.958 0.171 6.44 3.51 3.99
8/3/2022 3:30:00 PM 18.42 65.156 0.171 6.44 3.61 3.91
8/3/2022 3:45:00 PM 18.49 65.282 0.172 6.45 3.53 3.84
8/3/2022 4:00:00 PM 18.63 65.534 0.172 6.45 3.31 3.76
8/3/2022 4:15:00 PM 18.66 65.588 0.173 6.45 3.43 3.73
8/3/2022 4:30:00 PM 18.76 65.768 0.173 6.46 3.5 3.64
8/3/2022 4:45:00 PM 18.81 65.858 0.173 6.47 3.8 3.67
8/3/2022 5:00:00 PM 18.72 65.696 0.173 6.45 4.25 3.24
8/3/2022 5:15:00 PM 18.66 65.588 0.173 6.44 3.56 3.32
8/3/2022 5:30:00 PM 18.6 65.48 0.172 6.44 3.65 3.12
8/3/2022 5:45:00 PM 18.69 65.642 0.173 6.44 3.4 3.13
8/3/2022 6:00:00 PM 18.55 65.39 0.172 6.43 3.57 2.97
8/3/2022 6:15:00 PM 18.58 65.444 0.172 6.42 3.41 3.1
8/3/2022 6:30:00 PM 18.59 65.462 0.172 6.43 3.54 3.11
8/3/2022 6:45:00 PM 18.73 65.714 0.173 6.42 3.51 3.12
8/3/2022 7:00:00 PM 18.79 65.82201 0.172 6.42 3.66 3.07
8/3/2022 7:15:00 PM 18.47 65.246 0.172 6.42 3.71 2.93
8/3/2022 7:30:00 PM 18.56 65.408 0.172 6.41 3.79 2.94
8/3/2022 7:45:00 PM 18.41 65.138 0.171 6.41 3.63 3.01
8/3/2022 8:00:00 PM 18.43 65.174 0.171 6.41 3.52 2.92
8/3/2022 8:15:00 PM 18.36 65.048 0.171 6.41 3.63 2.83
8/3/2022 8:30:00 PM 18.34 65.012 0.172 6.4 4.3 2.77
8/3/2022 8:45:00 PM 18.41 65.138 0.171 6.4 4.14 2.82
8/3/2022 9:00:00 PM 18.31 64.958 0.17 6.39 4.14 2.88
8/3/2022 9:15:00 PM 18.3 64.94 0.171 6.39 4.35 2.73
8/3/2022 9:30:00 PM 18.31 64.958 0.171 6.41 4.07 2.68
8/3/2022 9:45:00 PM 18.3 64.94 0.171 6.4 4.32 2.71
8/3/2022 10:00:00 PM 18.26 64.868 0.171 6.39 4.49 2.64
8/3/2022 10:15:00 PM 18.25 64.85 0.171 6.4 4.27 2.56
8/3/2022 10:30:00 PM 18.24 64.832 0.171 6.39 4.48 2.4
8/3/2022 10:45:00 PM 18.22 64.796 0.171 6.38 4.2 2.4
8/3/2022 11:00:00 PM 18.19 64.742 0.171 6.38 4.27 2.43
8/3/2022 11:15:00 PM 18.14 64.652 0.171 6.38 4.06 2.76
8/3/2022 11:30:00 PM 18.13 64.634 0.17 6.38 4.11 2.61
8/3/2022 11:45:00 PM 18.13 64.634 0.171 6.38 4.43 2.47
8/4/2022 12:00:00 AM 18.09 64.562 0.17 6.37 4.28 2.44
8/4/2022 12:15:00 AM 18.04 64.472 0.17 6.37 4.19 2.27
8/4/2022 12:30:00 AM 18.05 64.49 0.171 6.37 4.19 2.6
8/4/2022 12:45:00 AM 18.02 64.436 0.17 6.37 3.95 2.45
8/4/2022 1:00:00 AM 17.96 64.328 0.17 6.37 4.07 2.39
8/4/2022 1:15:00 AM 17.92 64.256 0.17 6.36 3.84 2.23
8/4/2022 1:30:00 AM 17.9 64.22 0.17 6.36 4.08 2.38
8/4/2022 1:45:00 AM 17.87 64.166 0.17 6.36 3.68 2.22
8/4/2022 2:00:00 AM 17.82 64.076 0.171 6.36 3.84 2.14
8/4/2022 2:15:00 AM 17.79 64.022 0.171 6.36 4.05 2.16
8/4/2022 2:30:00 AM 17.73 63.914 0.171 6.37 3.75 2.16
8/4/2022 2:45:00 AM 17.74 63.932 0.172 6.36 3.84 2.24
8/4/2022 3:00:00 AM 17.72 63.896 0.173 6.37 3.87 2.34
8/4/2022 3:15:00 AM 17.68 63.824 0.173 6.38 4.12 2.14
8/4/2022 3:30:00 AM 17.63 63.734 0.175 6.37 3.86 2.21
8/4/2022 3:45:00 AM 17.6 63.68 0.175 6.38 4.3 2.16
8/4/2022 4:00:00 AM 17.59 63.662 0.176 6.38 3.87 2.19
8/4/2022 4:15:00 AM 17.52 63.536 0.175 6.37 3.65 2.09
8/4/2022 4:30:00 AM 17.53 63.554 0.174 6.38 3.83 2.41
8/4/2022 4:45:00 AM 17.45 63.41 0.174 6.38 3.65 2.12
8/4/2022 5:00:00 AM 17.46 63.428 0.174 6.41 3.77 2.43
8/4/2022 5:15:00 AM 17.36 63.248 0.174 6.39 3.97 2.37
8/4/2022 5:30:00 AM 17.41 63.338 0.175 6.4 3.8 2.45
8/4/2022 5:45:00 AM 17.3 63.14 0.174 6.4 3.97 2.41
8/4/2022 6:00:00 AM 17.28 63.104 0.175 6.4 4.52 2.36
8/4/2022 6:15:00 AM 17.21 62.978 0.174 6.4 4.63 2.25
8/4/2022 6:30:00 AM 17.18 62.924 0.173 6.39 3.99 2.33
8/4/2022 6:45:00 AM 17.14 62.852 0.172 6.39 4.13 2.35
8/4/2022 7:00:00 AM 17.09 62.762 0.171 6.38 4.09 2.39
8/4/2022 7:15:00 AM 17.06 62.708 0.171 6.38 4.36 2.53
8/4/2022 7:30:00 AM 17.06 62.708 0.171 6.38 4.21 2.46
8/4/2022 7:45:00 AM 17.07 62.726 0.171 6.38 4.1 2.33
8/4/2022 8:00:00 AM 17.07 62.726 0.172 6.39 4.72 2.27
8/4/2022 8:15:00 AM 17.01 62.618 0.172 6.38 4.38 2.18
8/4/2022 8:30:00 AM 16.99 62.582 0.172 6.38 4.29 2.29
8/4/2022 8:45:00 AM 17.02 62.636 0.172 6.38 5.56 2.35
8/4/2022 9:00:00 AM 17.01 62.618 0.172 6.39 4.78 2.3
8/4/2022 9:15:00 AM 17.03 62.654 0.172 6.39 5.31 2.42
8/4/2022 9:30:00 AM 16.99 62.582 0.171 6.4 4.79 2.46
8/4/2022 9:45:00 AM 16.98 62.564 0.171 6.4 5.24 2.53
8/4/2022 10:00:00 AM 17 62.6 0.171 6.4 4.83 2.56
8/4/2022 10:15:00 AM 16.96 62.528 0.171 6.4 4.97 2.54
8/4/2022 10:30:00 AM 16.99 62.582 0.172 6.4 4.54 2.45
8/4/2022 10:45:00 AM 17 62.6 0.172 6.41 4.43 2.6
8/4/2022 11:00:00 AM 16.93 62.474 0.172 6.41 3.94 2.74
8/4/2022 11:15:00 AM 16.96 62.528 0.172 6.41 3.84 2.67
8/4/2022 11:30:00 AM 16.9 62.42 0.172 6.4 3.98 2.68
8/4/2022 11:45:00 AM 16.99 62.582 0.172 6.41 3.89 2.57
8/4/2022 12:00:00 PM 16.97 62.546 0.173 6.41 4.32 2.57
8/4/2022 12:15:00 PM 16.92 62.456 0.172 6.41 4.31 2.69
8/4/2022 12:30:00 PM 17.07 62.726 0.175 6.42 4 2.5
8/4/2022 12:45:00 PM 16.99 62.582 0.173 6.42 4.05 2.65
8/4/2022 1:00:00 PM 17.05 62.69 0.173 6.41 3.92 2.6
8/4/2022 1:15:00 PM 16.94 62.492 0.172 6.4 4 2.54
8/4/2022 1:30:00 PM 16.97 62.546 0.172 6.41 3.92 2.49
8/4/2022 1:45:00 PM 16.96 62.528 0.172 6.41 4.71 2.5
8/4/2022 2:00:00 PM 17.24 63.032 0.173 6.42 9.73 2.68
8/4/2022 2:15:00 PM 17.1 62.78 0.17 6.4 10.5 2.53
8/4/2022 2:30:00 PM 17.2 62.96 0.165 6.4 13.88 2.68
8/4/2022 2:45:00 PM 17.13 62.834 0.166 6.39 18.52 2.79
8/4/2022 3:00:00 PM 17.12 62.816 0.166 6.39 19.48 2.62
8/4/2022 3:15:00 PM 17.1 62.78 0.166 6.39 14.96 2.28
8/4/2022 3:30:00 PM 17.13 62.834 0.165 6.39 14.11 2.46
8/4/2022 3:45:00 PM 17.12 62.816 0.165 6.39 14.92 2.47
8/4/2022 4:00:00 PM 17.15 62.87 0.164 6.38 15.11 2.39
8/4/2022 4:15:00 PM 17.11 62.798 0.164 6.38 17.11 2.34
8/4/2022 4:30:00 PM 17.21 62.978 0.162 6.38 16.14 2.43
8/4/2022 4:45:00 PM 17.22 62.996 0.161 6.38 15.29 2.54
8/4/2022 5:00:00 PM 17.17 62.906 0.163 6.39 16.2 2.41
8/4/2022 5:15:00 PM 17.15 62.87 0.164 6.38 14.35 2.21
8/4/2022 5:30:00 PM 17.2 62.96 0.163 6.38 14.58 2.15
8/4/2022 5:45:00 PM 17.2 62.96 0.162 6.38 14.07 2.16
8/4/2022 6:00:00 PM 17.22 62.996 0.163 6.39 20.91 2.45
8/4/2022 6:15:00 PM 17.18 62.924 0.161 6.37 15.38 2.4
8/4/2022 6:30:00 PM 17.21 62.978 0.161 6.37 14.61 2.34
8/4/2022 6:45:00 PM 17.25 63.05 0.161 6.38 13.3 2.4
8/4/2022 7:00:00 PM 17.2 62.96 0.163 6.38 13.47 2.32
8/4/2022 7:15:00 PM 17.3 63.14 0.162 6.38 13.5 2.4
8/4/2022 7:30:00 PM 17.11 62.798 0.162 6.37 13.84 2.28
8/4/2022 7:45:00 PM 17.04 62.672 0.163 6.37 13.3 2.11
8/4/2022 8:00:00 PM 17.05 62.69 0.162 6.36 13.42 2.27
8/4/2022 8:15:00 PM 17.01 62.618 0.163 6.35 11.71 2.13
8/4/2022 8:30:00 PM 16.99 62.582 0.162 6.35 11.76 2.14
8/4/2022 8:45:00 PM 17.02 62.636 0.162 6.36 13.48 2.21
8/4/2022 9:00:00 PM 17.02 62.636 0.162 6.35 11.18 2.18
8/4/2022 9:15:00 PM 16.99 62.582 0.163 6.35 12.27 2.17
8/4/2022 9:30:00 PM 16.95 62.51 0.164 6.36 12.04 2.08
8/4/2022 9:45:00 PM 16.98 62.564 0.164 6.36 11.06 2.22
8/4/2022 10:00:00 PM 16.92 62.456 0.166 6.36 11.77 1.91
8/4/2022 10:15:00 PM 16.91 62.438 0.166 6.36 11.61 1.89
8/4/2022 10:30:00 PM 16.93 62.474 0.166 6.37 10.49 2.02
8/4/2022 10:45:00 PM 16.92 62.456 0.167 6.36 9.91 1.89
8/4/2022 11:00:00 PM 16.84 62.312 0.168 6.36 9.85 1.77
8/4/2022 11:15:00 PM 16.93 62.474 0.168 6.36 10 1.74
8/4/2022 11:30:00 PM 16.89 62.402 0.168 6.36 9.19 1.8
8/4/2022 11:45:00 PM 16.89 62.402 0.169 6.36 8.53 1.7
8/5/2022 12:00:00 AM 16.86 62.348 0.169 6.36 8.4 1.75
8/5/2022 12:15:00 AM 16.86 62.348 0.169 6.36 8.12 1.75
8/5/2022 12:30:00 AM 16.85 62.33 0.171 6.37 9.09 1.64
8/5/2022 12:45:00 AM 16.85 62.33 0.172 6.37 8.12 1.59
8/5/2022 1:00:00 AM 16.85 62.33 0.172 6.37 7.81 1.5
8/5/2022 1:15:00 AM 16.83 62.294 0.173 6.37 7.43 1.74
8/5/2022 1:30:00 AM 16.83 62.294 0.173 6.37 7.27 1.6
8/5/2022 1:45:00 AM 16.77 62.186 0.173 6.36 6.49 1.68
8/5/2022 2:00:00 AM 16.8 62.24 0.174 6.36 7.13 1.67
8/5/2022 2:15:00 AM 16.86 62.348 0.174 6.37 6.14 1.82
8/5/2022 2:30:00 AM 16.72 62.096 0.174 6.36 6.07 1.65
8/5/2022 2:45:00 AM 16.71 62.078 0.174 6.36 5.62 1.62
8/5/2022 3:00:00 AM 16.71 62.078 0.175 6.36 6.26 1.6
8/5/2022 3:15:00 AM 16.7 62.06 0.176 6.37 6.32 1.7
8/5/2022 3:30:00 AM 16.66 61.988 0.176 6.36 5.75 1.64
8/5/2022 3:45:00 AM 16.64 61.952 0.176 6.37 5.75 1.67
8/5/2022 4:00:00 AM 16.63 61.934 0.176 6.36 5.54 1.73
8/5/2022 4:15:00 AM 16.57 61.826 0.176 6.36 5.33 1.72
8/5/2022 4:30:00 AM 16.59 61.862 0.176 6.36 5.46 1.63
8/5/2022 4:45:00 AM 16.55 61.79 0.176 6.35 6.14 1.56
8/5/2022 5:00:00 AM 16.53 61.754 0.177 6.36 6.06 1.59
8/5/2022 5:15:00 AM 16.5 61.7 0.177 6.36 6.42 1.71
8/5/2022 5:30:00 AM 16.51 61.718 0.178 6.37 6.41 1.84
8/5/2022 5:45:00 AM 16.61 61.898 0.179 6.36 6.88 1.67
8/5/2022 6:00:00 AM 16.62 61.916 0.179 6.37 6.77 1.73
8/5/2022 6:15:00 AM 16.58 61.844 0.181 6.38 7.39 1.49
8/5/2022 6:30:00 AM 16.49 61.682 0.18 6.37 6.14 1.53
8/5/2022 6:45:00 AM 16.49 61.682 0.18 6.37 5.69 1.64
8/5/2022 7:00:00 AM 16.48 61.664 0.18 6.37 6.2 1.52
8/5/2022 7:15:00 AM 16.45 61.61 0.18 6.36 6.2 1.62
8/5/2022 7:30:00 AM 16.39 61.502 0.181 6.37 6.35 1.49
8/5/2022 7:45:00 AM 16.44 61.592 0.181 6.37 6.38 1.52
8/5/2022 8:00:00 AM 16.6 61.88 0.181 6.37 6.63 1.8
8/5/2022 8:15:00 AM 16.49 61.682 0.181 6.37 7.96 1.58
8/5/2022 8:30:00 AM 16.45 61.61 0.18 6.36 5.54 1.67
8/5/2022 8:45:00 AM 16.43 61.574 0.179 6.36 4.8 1.68
8/5/2022 9:00:00 AM 16.42 61.556 0.179 6.35 4.6 1.62
8/5/2022 9:15:00 AM 16.47 61.646 0.179 6.35 4.76 1.79
8/5/2022 9:30:00 AM 16.45 61.61 0.179 6.35 4.61 1.73
8/5/2022 9:45:00 AM 16.46 61.628 0.179 6.35 4.69 1.7
8/5/2022 10:00:00 AM 16.43 61.574 0.179 6.35 4.53 1.67
8/5/2022 10:15:00 AM 16.44 61.592 0.179 6.35 4.33 1.78
8/5/2022 10:30:00 AM 16.46 61.628 0.18 6.35 4.61 1.75
8/5/2022 10:45:00 AM 16.48 61.664 0.18 6.36 4.54 1.82
8/5/2022 11:00:00 AM 16.48 61.664 0.181 6.36 4.39 1.86
8/5/2022 11:15:00 AM 16.51 61.718 0.18 6.37 5.22 1.91
8/5/2022 11:30:00 AM 16.61 61.898 0.182 6.36 5.16 1.87
8/5/2022 11:45:00 AM 16.48 61.664 0.181 6.36 5.1 1.89
8/5/2022 12:00:00 PM 16.48 61.664 0.181 6.36 4.18 1.83
8/5/2022 12:15:00 PM 16.5 61.7 0.181 6.35 4.32 1.82
8/5/2022 12:30:00 PM 16.52 61.736 0.181 6.36 4.49 1.79
8/5/2022 12:45:00 PM 16.57 61.826 0.183 6.37 5.12 1.94
8/5/2022 1:00:00 PM 16.69 62.042 0.183 6.38 5.14 1.8
8/5/2022 1:15:00 PM 16.84 62.312 0.184 6.38 4.57 2.07
8/5/2022 1:30:00 PM 16.9 62.42 0.183 6.38 4.45 2.22
8/5/2022 1:45:00 PM 17.17 62.906 0.183 6.39 4.62 2.58
8/5/2022 2:00:00 PM 17.23 63.014 0.183 6.39 4.82 2.69
8/5/2022 2:15:00 PM 17.26 63.068 0.183 6.39 4.92 2.8
8/5/2022 2:30:00 PM 17.23 63.014 0.182 6.38 4.42 2.81
8/5/2022 2:45:00 PM 17.19 62.942 0.182 6.38 4.62 2.91
8/5/2022 3:00:00 PM 17.35 63.23 0.182 6.38 4.37 3.03
8/5/2022 3:15:00 PM 17.42 63.356 0.181 6.39 4.42 3.24
8/5/2022 3:30:00 PM 17.42 63.356 0.181 6.39 4.29 3.42
8/5/2022 3:45:00 PM 17.36 63.248 0.181 6.39 4.16 3.19
8/5/2022 4:00:00 PM 17.42 63.356 0.181 6.39 4.2 3.27
8/5/2022 4:15:00 PM 17.37 63.266 0.181 6.39 4.09 3.03
8/5/2022 4:30:00 PM 17.4 63.32 0.181 6.39 4.5 3.05
8/5/2022 4:45:00 PM 17.37 63.266 0.181 6.38 4.13 2.78
8/5/2022 5:00:00 PM 17.28 63.104 0.181 6.37 4.37 2.61
8/5/2022 5:15:00 PM 17.35 63.23 0.18 6.37 4.1 2.73
8/5/2022 5:30:00 PM 17.34 63.212 0.179 6.36 4.18 2.89
8/5/2022 5:45:00 PM 17.3 63.14 0.179 6.36 3.96 2.86
8/5/2022 6:00:00 PM 17.38 63.284 0.178 6.35 5.29 2.67
8/5/2022 6:15:00 PM 17.37 63.266 0.178 6.36 4.1 2.72
8/5/2022 6:30:00 PM 17.33 63.194 0.178 6.35 3.96 2.78
8/5/2022 6:45:00 PM 17.25 63.05 0.178 6.35 4.22 2.71
8/5/2022 7:00:00 PM 17.27 63.086 0.179 6.35 4.54 2.55
8/5/2022 7:15:00 PM 17.26 63.068 0.178 6.35 4.58 2.48
8/5/2022 7:30:00 PM 17.23 63.014 0.178 6.35 4.02 2.51
8/5/2022 7:45:00 PM 17.21 62.978 0.178 6.34 3.89 2.51
8/5/2022 8:00:00 PM 17.18 62.924 0.177 6.34 3.79 2.49
8/5/2022 8:15:00 PM 17.17 62.906 0.178 6.34 4.27 2.66
8/5/2022 8:30:00 PM 17.11 62.798 0.178 6.34 4.13 2.55
8/5/2022 8:45:00 PM 17.16 62.888 0.179 6.35 4.81 2.4
8/5/2022 9:00:00 PM 17.06 62.708 0.178 6.34 3.8 2.4
8/5/2022 9:15:00 PM 17.08 62.744 0.178 6.34 5.25 2.38
8/5/2022 9:30:00 PM 17.02 62.636 0.178 6.34 5.74 2.32
8/5/2022 9:45:00 PM 16.99 62.582 0.178 6.34 5.31 2.15
8/5/2022 10:00:00 PM 16.94 62.492 0.178 6.34 5.67 2.23
8/5/2022 10:15:00 PM 16.93 62.474 0.179 6.34 4.79 2.16
8/5/2022 10:30:00 PM 16.93 62.474 0.179 6.34 4.68 2.21
8/5/2022 10:45:00 PM 16.89 62.402 0.178 6.34 4.69 2.21
8/5/2022 11:00:00 PM 16.86 62.348 0.177 6.33 4.81 2.18
8/5/2022 11:15:00 PM 16.85 62.33 0.177 6.33 4.45 2.18
8/5/2022 11:30:00 PM 16.79 62.222 0.177 6.32 4.29 2.02
8/5/2022 11:45:00 PM 16.79 62.222 0.177 6.32 4.35 1.97
8/6/2022 12:00:00 AM 16.76 62.168 0.178 6.32 4.21 1.75
8/6/2022 12:15:00 AM 16.73 62.114 0.178 6.32 4.21 1.77
8/6/2022 12:30:00 AM 16.69 62.042 0.177 6.32 4.57 1.82
8/6/2022 12:45:00 AM 16.69 62.042 0.177 6.32 4.21 1.72
8/6/2022 1:00:00 AM 16.7 62.06 0.178 6.32 4.15 1.63
8/6/2022 1:15:00 AM 16.64 61.952 0.178 6.31 4.57 1.61
8/6/2022 1:30:00 AM 16.6 61.88 0.178 6.31 4.15 1.51
8/6/2022 1:45:00 AM 16.57 61.826 0.178 6.31 3.97 1.56
8/6/2022 2:00:00 AM 16.52 61.736 0.177 6.31 4.09 1.47
8/6/2022 2:15:00 AM 16.55 61.79 0.177 6.31 5.06 1.47
8/6/2022 2:30:00 AM 16.56 61.808 0.178 6.31 4.38 1.56
8/6/2022 2:45:00 AM 16.46 61.628 0.179 6.31 4.23 1.33
8/6/2022 3:00:00 AM 16.47 61.646 0.179 6.32 4.01 1.41
8/6/2022 3:15:00 AM 16.44 61.592 0.179 6.32 4.26 1.34
8/6/2022 3:30:00 AM 16.44 61.592 0.178 6.31 3.96 1.36
8/6/2022 3:45:00 AM 16.4 61.52 0.177 6.31 4.4 1.37
8/6/2022 4:00:00 AM 16.35 61.43 0.176 6.3 3.8 1.51
8/6/2022 4:15:00 AM 16.34 61.412 0.176 6.3 3.89 1.48
8/6/2022 4:30:00 AM 16.29 61.322 0.176 6.29 3.76 1.44
8/6/2022 4:45:00 AM 16.23 61.214 0.177 6.3 3.94 1.24
8/6/2022 5:00:00 AM 16.25 61.25 0.176 6.3 3.77 1.29
8/6/2022 5:15:00 AM 16.21 61.178 0.176 6.29 3.97 1.3
8/6/2022 5:30:00 AM 16.24 61.232 0.177 6.3 4.51 1.36
8/6/2022 5:45:00 AM 16.29 61.322 0.178 6.31 4.5 1.33
8/6/2022 6:00:00 AM 16.35 61.43 0.177 6.3 4.33 1.36
8/6/2022 6:15:00 AM 16.38 61.484 0.177 6.3 4.39 1.26
8/6/2022 6:30:00 AM 16.23 61.214 0.175 6.29 4.6 1.42
8/6/2022 6:45:00 AM 16.14 61.052 0.174 6.28 5.01 1.4
8/6/2022 7:00:00 AM 16.2 61.16 0.175 6.29 5.15 1.34
8/6/2022 7:15:00 AM 16.23 61.214 0.177 6.3 4.61 1.22
8/6/2022 7:30:00 AM 16.14 61.052 0.175 6.29 4.43 1.38
8/6/2022 7:45:00 AM 16.14 61.052 0.175 6.29 3.85 1.35
8/6/2022 8:00:00 AM 16.07 60.926 0.174 6.28 3.87 1.3
8/6/2022 8:15:00 AM 16.02 60.836 0.174 6.28 4.03 1.28
8/6/2022 8:30:00 AM 16 60.8 0.173 6.28 3.73 1.26
8/6/2022 8:45:00 AM 16.02 60.836 0.173 6.27 4.05 1.25
8/6/2022 9:00:00 AM 16 60.8 0.173 6.27 3.8 1.21
8/6/2022 9:15:00 AM 16.03 60.854 0.174 6.28 4.01 1.28
8/6/2022 9:30:00 AM 16 60.8 0.174 6.28 3.77 1.35
8/6/2022 9:45:00 AM 15.98 60.764 0.174 6.28 3.85 1.38
8/6/2022 10:00:00 AM 15.99 60.782 0.173 6.28 3.66 1.31
8/6/2022 10:15:00 AM 15.94 60.692 0.174 6.27 3.82 1.36
8/6/2022 10:30:00 AM 16.04 60.872 0.174 6.29 5.38 1.48
8/6/2022 10:45:00 AM 16.04 60.872 0.174 6.28 4.69 1.5
8/6/2022 11:00:00 AM 16.02 60.836 0.174 6.28 4.35 1.43
8/6/2022 11:15:00 AM 15.98 60.764 0.175 6.28 4.68 1.25
8/6/2022 11:30:00 AM 16.02 60.836 0.174 6.28 4.93 1.33
8/6/2022 11:45:00 AM 16.02 60.836 0.173 6.28 5.07 1.37
8/6/2022 12:00:00 PM 16.02 60.836 0.173 6.27 4.69 1.32
8/6/2022 12:15:00 PM 16.08 60.944 0.173 6.28 4.59 1.47
8/6/2022 12:30:00 PM 16.06 60.908 0.173 6.28 4.32 1.47
8/6/2022 12:45:00 PM 16.07 60.926 0.174 6.28 4.22 1.41
8/6/2022 1:00:00 PM 16.23 61.214 0.174 6.28 4.48 1.45
8/6/2022 1:15:00 PM 16.37 61.466 0.174 6.29 4.49 1.73
8/6/2022 1:30:00 PM 16.55 61.79 0.174 6.29 4.09 2.04
8/6/2022 1:45:00 PM 16.75 62.15 0.174 6.3 3.98 2.31
8/6/2022 2:00:00 PM 16.97 62.546 0.175 6.31 3.75 2.26
8/6/2022 2:15:00 PM 16.97 62.546 0.177 6.33 5.18 2.3
8/6/2022 2:30:00 PM 17 62.6 0.178 6.33 6.02 2.3
8/6/2022 2:45:00 PM 17.03 62.654 0.177 6.32 4.9 2.26
8/6/2022 3:00:00 PM 17.02 62.636 0.176 6.32 4.33 2.25
8/6/2022 3:15:00 PM 17.03 62.654 0.176 6.32 4.36 2.37
8/6/2022 3:30:00 PM 17.01 62.618 0.176 6.32 3.87 2.35
8/6/2022 3:45:00 PM 16.99 62.582 0.174 6.31 4.22 2.5
8/6/2022 4:00:00 PM 17.04 62.672 0.174 6.3 4.58 2.52
8/6/2022 4:15:00 PM 16.99 62.582 0.173 6.3 4.39 2.81
8/6/2022 4:30:00 PM 17 62.6 0.173 6.3 4.52 2.7
8/6/2022 4:45:00 PM 17.02 62.636 0.173 6.3 4.16 2.52
8/6/2022 5:00:00 PM 16.99 62.582 0.173 6.3 4.12 2.43
8/6/2022 5:15:00 PM 16.99 62.582 0.174 6.3 4.72 2.43
8/6/2022 5:30:00 PM 17.04 62.672 0.174 6.3 4.54 2.31
8/6/2022 5:45:00 PM 17.08 62.744 0.175 6.31 14.89 2.43
8/6/2022 6:00:00 PM 17.05 62.69 0.177 6.32 7.5 2.2
8/6/2022 6:15:00 PM 17.03 62.654 0.178 6.33 6.99 1.99
8/6/2022 6:30:00 PM 16.99 62.582 0.178 6.32 5.92 2.04
8/6/2022 6:45:00 PM 17.03 62.654 0.175 6.31 4.97 2.2
8/6/2022 7:00:00 PM 17 62.6 0.175 6.3 4.56 2.36
8/6/2022 7:15:00 PM 16.98 62.564 0.175 6.31 4.93 2.22
8/6/2022 7:30:00 PM 16.95 62.51 0.175 6.3 4.36 2.08
8/6/2022 7:45:00 PM 16.93 62.474 0.174 6.3 5.02 2.03
8/6/2022 8:00:00 PM 16.96 62.528 0.174 6.3 4.8 2.1
8/6/2022 8:15:00 PM 16.94 62.492 0.173 6.3 4.2 2.21
8/6/2022 8:30:00 PM 16.91 62.438 0.174 6.29 4.22 2.05
8/6/2022 8:45:00 PM 16.91 62.438 0.175 6.29 5.65 1.96
8/6/2022 9:00:00 PM 16.86 62.348 0.174 6.29 5.33 1.89
8/6/2022 9:15:00 PM 16.84 62.312 0.174 6.3 6.73 2.1
8/6/2022 9:30:00 PM 16.82 62.276 0.174 6.29 5.32 2.16
8/6/2022 9:45:00 PM 16.78 62.204 0.174 6.29 5.36 1.92
8/6/2022 10:00:00 PM 16.8 62.24 0.174 6.29 4.75 1.95
8/6/2022 10:15:00 PM 16.83 62.294 0.173 6.29 5 2
8/6/2022 10:30:00 PM 16.85 62.33 0.173 6.29 4.93 2.1
8/6/2022 10:45:00 PM 16.71 62.078 0.173 6.28 4.65 2.07
8/6/2022 11:00:00 PM 16.7 62.06 0.173 6.28 4.1 2.01
8/6/2022 11:15:00 PM 16.64 61.952 0.172 6.28 4.05 2.12
8/6/2022 11:30:00 PM 16.63 61.934 0.173 6.28 4.24 2.05
8/6/2022 11:45:00 PM 16.61 61.898 0.173 6.28 4.13 1.9
8/7/2022 12:00:00 AM 16.6 61.88 0.173 6.28 4.62 1.65
8/7/2022 12:15:00 AM 16.57 61.826 0.174 6.28 4.35 1.69
8/7/2022 12:30:00 AM 16.56 61.808 0.174 6.28 4.33 1.74
8/7/2022 12:45:00 AM 16.54 61.772 0.175 6.29 4.03 1.73
8/7/2022 1:00:00 AM 16.5 61.7 0.174 6.28 3.97 1.85
8/7/2022 1:15:00 AM 16.49 61.682 0.174 6.28 4.09 1.7
8/7/2022 1:30:00 AM 16.45 61.61 0.174 6.28 4.59 1.63
8/7/2022 1:45:00 AM 16.42 61.556 0.174 6.28 4.76 1.56
8/7/2022 2:00:00 AM 16.4 61.52 0.175 6.28 4.34 1.46
8/7/2022 2:15:00 AM 16.36 61.448 0.175 6.28 4.29 1.44
8/7/2022 2:30:00 AM 16.35 61.43 0.174 6.28 4.14 1.45
8/7/2022 2:45:00 AM 16.32 61.376 0.174 6.28 3.85 1.44
8/7/2022 3:00:00 AM 16.3 61.34 0.174 6.28 4.09 1.35
8/7/2022 3:15:00 AM 16.34 61.412 0.175 6.28 3.85 1.32
8/7/2022 3:30:00 AM 16.26 61.268 0.174 6.27 3.9 1.27
8/7/2022 3:45:00 AM 16.23 61.214 0.174 6.28 3.94 1.25
8/7/2022 4:00:00 AM 16.23 61.214 0.174 6.28 3.97 1.31
8/7/2022 4:15:00 AM 16.17 61.106 0.173 6.27 3.84 1.36
8/7/2022 4:30:00 AM 16.18 61.124 0.174 6.27 4.18 1.42
8/7/2022 4:45:00 AM 16.28 61.304 0.175 6.28 4.16 1.39
8/7/2022 5:00:00 AM 16.28 61.304 0.174 6.27 3.61 1.56
8/7/2022 5:15:00 AM 16.19 61.142 0.172 6.26 3.65 1.44
8/7/2022 5:30:00 AM 16.21 61.178 0.173 6.27 4.35 1.38
8/7/2022 5:45:00 AM 16.12 61.016 0.174 6.27 5.61 1.24
8/7/2022 6:00:00 AM 16.17 61.106 0.174 6.27 4.43 1.29
8/7/2022 6:15:00 AM 16.16 61.088 0.174 6.27 4.4 1.3
8/7/2022 6:30:00 AM 16.1 60.98 0.173 6.27 4.32 1.23
8/7/2022 6:45:00 AM 16.08 60.944 0.173 6.26 4.48 1.18
8/7/2022 7:00:00 AM 16.13 61.034 0.174 6.27 4.53 1.16
8/7/2022 7:15:00 AM 16.01 60.818 0.172 6.26 4.53 1.27
8/7/2022 7:30:00 AM 16.01 60.818 0.171 6.25 4.91 1.21
8/7/2022 7:45:00 AM 15.99 60.782 0.171 6.25 4.74 1.27
8/7/2022 8:00:00 AM 15.97 60.746 0.17 6.25 4.21 1.24
8/7/2022 8:15:00 AM 16.02 60.836 0.17 6.24 4.23 1.28
8/7/2022 8:30:00 AM 15.94 60.692 0.17 6.24 4.13 1.19
8/7/2022 8:45:00 AM 15.96 60.728 0.17 6.24 4.17 1.28
8/7/2022 9:00:00 AM 15.96 60.728 0.17 6.24 4.09 1.19
8/7/2022 9:15:00 AM 15.95 60.71 0.169 6.24 4.36 1.22
8/7/2022 9:30:00 AM 15.96 60.728 0.169 6.24 4.22 1.26
8/7/2022 9:45:00 AM 16 60.8 0.169 6.24 4.15 1.31
8/7/2022 10:00:00 AM 15.98 60.764 0.169 6.24 4.53 1.22
8/7/2022 10:15:00 AM 15.98 60.764 0.169 6.24 4.27 1.28
8/7/2022 10:30:00 AM 15.98 60.764 0.169 6.24 4.03 1.25
8/7/2022 10:45:00 AM 15.98 60.764 0.169 6.24 3.93 1.27
8/7/2022 11:00:00 AM 15.99 60.782 0.169 6.24 4.24 1.47
8/7/2022 11:15:00 AM 16 60.8 0.169 6.24 4.17 1.44
8/7/2022 11:30:00 AM 16.04 60.872 0.169 6.24 4.3 1.51
8/7/2022 11:45:00 AM 16.12 61.016 0.17 6.25 4.69 1.57
8/7/2022 12:00:00 PM 16.12 61.016 0.17 6.25 4.2 1.51
8/7/2022 12:15:00 PM 16.13 61.034 0.171 6.26 5.16 1.41
8/7/2022 12:30:00 PM 16.1 60.98 0.171 6.26 4.13 1.52
8/7/2022 12:45:00 PM 16.27 61.286 0.17 6.25 4.07 1.51
8/7/2022 1:00:00 PM 16.24 61.232 0.17 6.25 4.83 1.49
8/7/2022 1:15:00 PM 16.48 61.664 0.17 6.25 3.65 1.69
8/7/2022 1:30:00 PM 16.52 61.736 0.171 6.27 3.97 1.88
8/7/2022 1:45:00 PM 16.77 62.186 0.17 6.26 4.77 2.04
8/7/2022 2:00:00 PM 16.83 62.294 0.17 6.26 3.8 2.41
8/7/2022 2:15:00 PM 16.95 62.51 0.171 6.27 3.66 2.51
8/7/2022 2:30:00 PM 17.01 62.618 0.171 6.28 3.89 2.54
8/7/2022 2:45:00 PM 17.2 62.96 0.17 6.27 4.68 2.71
8/7/2022 3:00:00 PM 17.26 63.068 0.17 6.27 3.61 2.83
8/7/2022 3:15:00 PM 17.3 63.14 0.17 6.27 3.73 2.9
8/7/2022 3:30:00 PM 17.43 63.374 0.169 6.27 3.6 2.97
8/7/2022 3:45:00 PM 17.55 63.59 0.169 6.27 3.49 2.9
8/7/2022 4:00:00 PM 17.48 63.464 0.17 6.28 3.3 2.93
8/7/2022 4:15:00 PM 17.53 63.554 0.17 6.28 3.5 2.98
8/7/2022 4:30:00 PM 17.46 63.428 0.17 6.28 3.09 3
8/7/2022 4:45:00 PM 17.45 63.41 0.17 6.29 3.17 2.96
8/7/2022 5:00:00 PM 17.53 63.554 0.17 6.29 3.12 3.34
8/7/2022 5:15:00 PM 17.45 63.41 0.17 6.29 3.71 3.1
8/7/2022 5:30:00 PM 17.45 63.41 0.171 6.29 3.73 2.93
8/7/2022 5:45:00 PM 17.44 63.392 0.171 6.29 3.23 2.77
8/7/2022 6:00:00 PM 17.44 63.392 0.171 6.29 3.58 2.82
8/7/2022 6:15:00 PM 17.4 63.32 0.172 6.29 3.86 2.82
8/7/2022 6:30:00 PM 17.44 63.392 0.171 6.29 3.36 2.68
8/7/2022 6:45:00 PM 17.4 63.32 0.171 6.29 3.28 2.7
8/7/2022 7:00:00 PM 17.35 63.23 0.171 6.28 3.29 2.63
8/7/2022 7:15:00 PM 17.33 63.194 0.171 6.28 3.45 2.64
8/7/2022 7:30:00 PM 17.33 63.194 0.171 6.29 3.6 2.59
8/7/2022 7:45:00 PM 17.27 63.086 0.171 6.28 3.59 2.57
8/7/2022 8:00:00 PM 17.21 62.978 0.17 6.27 3.67 2.71
8/7/2022 8:15:00 PM 17.32 63.176 0.17 6.27 4.01 2.59
8/7/2022 8:30:00 PM 17.31 63.158 0.17 6.28 4.5 2.46
8/7/2022 8:45:00 PM 17.29 63.122 0.171 6.28 4.61 2.48
8/7/2022 9:00:00 PM 17.2 62.96 0.17 6.27 4.03 2.49
8/7/2022 9:15:00 PM 17.16 62.888 0.17 6.27 4.33 2.39
8/7/2022 9:30:00 PM 17.16 62.888 0.17 6.27 4.53 2.51
8/7/2022 9:45:00 PM 17.11 62.798 0.17 6.26 4.3 2.31
8/7/2022 10:00:00 PM 17.1 62.78 0.17 6.26 4.03 2.39
8/7/2022 10:15:00 PM 17.12 62.816 0.171 6.27 4.15 2.05
8/7/2022 10:30:00 PM 17.06 62.708 0.171 6.27 3.73 2.19
8/7/2022 10:45:00 PM 17.13 62.834 0.171 6.27 4.55 2.17
8/7/2022 11:00:00 PM 17.03 62.654 0.171 6.27 4.38 2.04
8/7/2022 11:15:00 PM 16.95 62.51 0.171 6.27 4.41 1.95
8/7/2022 11:30:00 PM 16.94 62.492 0.171 6.27 4.69 1.95
8/7/2022 11:45:00 PM 16.97 62.546 0.171 6.26 4.4 1.81
8/8/2022 12:00:00 AM 16.96 62.528 0.17 6.26 4.09 2.24
8/8/2022 12:15:00 AM 16.89 62.402 0.17 6.26 3.82 2.2
8/8/2022 12:30:00 AM 16.9 62.42 0.17 6.26 3.89 2.29
8/8/2022 12:45:00 AM 16.84 62.312 0.17 6.26 3.52 2.2
8/8/2022 1:00:00 AM 16.79 62.222 0.17 6.26 3.58 2.01
8/8/2022 1:15:00 AM 16.84 62.312 0.171 6.26 3.85 2.04
8/8/2022 1:30:00 AM 16.74 62.132 0.17 6.26 3.59 1.89
8/8/2022 1:45:00 AM 16.74 62.132 0.17 6.25 4.9 1.98
8/8/2022 2:00:00 AM 16.71 62.078 0.17 6.26 4.18 1.81
8/8/2022 2:15:00 AM 16.66 61.988 0.171 6.26 3.49 1.7
8/8/2022 2:30:00 AM 16.65 61.97 0.171 6.26 3.59 1.7
8/8/2022 2:45:00 AM 16.67 62.006 0.17 6.26 3.76 1.69
8/8/2022 3:00:00 AM 16.59 61.862 0.17 6.25 3.56 1.67
8/8/2022 3:15:00 AM 16.58 61.844 0.172 6.27 4.95 1.77
8/8/2022 3:30:00 AM 16.58 61.844 0.172 6.26 4.68 1.69
8/8/2022 3:45:00 AM 16.52 61.736 0.171 6.26 3.55 1.67
8/8/2022 4:00:00 AM 16.48 61.664 0.17 6.25 3.5 1.79
8/8/2022 4:15:00 AM 16.47 61.646 0.17 6.25 3.57 1.72
8/8/2022 4:30:00 AM 16.44 61.592 0.17 6.25 3.5 1.68
8/8/2022 4:45:00 AM 16.45 61.61 0.171 6.26 4.16 1.48
8/8/2022 5:00:00 AM 16.5 61.7 0.171 6.26 3.5 1.57
8/8/2022 5:15:00 AM 16.47 61.646 0.171 6.25 3.75 1.51
8/8/2022 5:30:00 AM 16.43 61.574 0.171 6.25 3.63 1.42
8/8/2022 5:45:00 AM 16.49 61.682 0.171 6.26 4.12 1.5
8/8/2022 6:00:00 AM 16.39 61.502 0.171 6.25 3.85 1.46
8/8/2022 6:15:00 AM 16.43 61.574 0.171 6.25 4.01 1.5
8/8/2022 6:30:00 AM 16.44 61.592 0.172 6.26 4.53 1.52
8/8/2022 6:45:00 AM 16.36 61.448 0.171 6.25 4.39 1.48
8/8/2022 7:00:00 AM 16.4 61.52 0.171 6.25 4.26 1.37
8/8/2022 7:15:00 AM 16.3 61.34 0.171 6.25 3.88 1.37
8/8/2022 7:30:00 AM 16.34 61.412 0.17 6.24 3.93 1.43
8/8/2022 7:45:00 AM 16.27 61.286 0.17 6.25 4.07 1.51
8/8/2022 8:00:00 AM 16.28 61.304 0.17 6.25 3.97 1.46
8/8/2022 8:15:00 AM 16.28 61.304 0.17 6.25 4.09 1.37
8/8/2022 8:30:00 AM 16.23 61.214 0.17 6.25 4.12 1.29
8/8/2022 8:45:00 AM 16.34 61.412 0.169 6.24 4.64 1.34
8/8/2022 9:00:00 AM 16.2 61.16 0.169 6.24 3.94 1.49
8/8/2022 9:15:00 AM 16.26 61.268 0.169 6.24 3.72 1.33
8/8/2022 9:30:00 AM 16.17 61.106 0.17 6.24 3.92 1.28
8/8/2022 9:45:00 AM 16.19 61.142 0.17 6.24 3.62 1.35
8/8/2022 10:00:00 AM 16.2 61.16 0.17 6.24 3.74 1.34
8/8/2022 10:15:00 AM 16.18 61.124 0.17 6.25 3.61 1.28
8/8/2022 10:30:00 AM 16.12 61.016 0.17 6.24 4.25 1.31
8/8/2022 10:45:00 AM 16.23 61.214 0.17 6.25 3.78 1.37
8/8/2022 11:00:00 AM 16.18 61.124 0.17 6.25 4.1 1.32
8/8/2022 11:15:00 AM 16.32 61.376 0.17 6.25 3.81 1.52
8/8/2022 11:30:00 AM 16.26 61.268 0.17 6.25 4.17 1.46
8/8/2022 11:45:00 AM 16.22 61.196 0.17 6.25 3.82 1.56
8/8/2022 12:00:00 PM 16.28 61.304 0.17 6.25 3.81 1.53
8/8/2022 12:15:00 PM 16.26 61.268 0.171 6.25 3.88 1.45
8/8/2022 12:30:00 PM 16.21 61.178 0.17 6.25 3.76 1.39
8/8/2022 12:45:00 PM 16.36 61.448 0.171 6.26 3.78 1.49
8/8/2022 1:00:00 PM 16.48 61.664 0.171 6.26 4.04 1.53
8/8/2022 1:15:00 PM 16.67 62.006 0.171 6.27 3.99 1.64
8/8/2022 1:30:00 PM 16.72 62.096 0.172 6.27 4.6 1.73
8/8/2022 1:45:00 PM 16.83 62.294 0.172 6.28 3.87 1.81
8/8/2022 2:00:00 PM 16.87 62.366 0.173 6.28 4.6 1.82
8/8/2022 2:15:00 PM 17.16 62.888 0.173 6.29 3.87 1.99
8/8/2022 2:30:00 PM 17.27 63.086 0.173 6.29 3.74 2.17
8/8/2022 2:45:00 PM 17.48 63.464 0.172 6.29 6.07 2.42
8/8/2022 3:00:00 PM 17.46 63.428 0.172 6.29 4.12 2.49
8/8/2022 3:15:00 PM 17.45 63.41 0.172 6.29 3.85 2.51
8/8/2022 3:30:00 PM 17.49 63.482 0.172 6.3 3.62 2.6
8/8/2022 3:45:00 PM 17.52 63.536 0.172 6.3 3.81 2.6
8/8/2022 4:00:00 PM 17.45 63.41 0.171 6.3 3.49 2.75
8/8/2022 4:15:00 PM 17.49 63.482 0.171 6.3 3.52 2.75
8/8/2022 4:30:00 PM 17.54 63.572 0.171 6.3 4.37 2.73
8/8/2022 4:45:00 PM 17.49 63.482 0.171 6.3 4.48 2.71
8/8/2022 5:00:00 PM 17.54 63.572 0.172 6.3 3.92 2.66
8/8/2022 5:15:00 PM 17.43 63.374 0.172 6.3 4.48 2.65
8/8/2022 5:30:00 PM 17.49 63.482 0.172 6.3 3.86 2.62
8/8/2022 5:45:00 PM 17.56 63.608 0.172 6.3 4.22 2.28
8/8/2022 6:00:00 PM 17.73 63.914 0.172 6.3 4.43 2.4
8/8/2022 6:15:00 PM 17.49 63.482 0.172 6.3 4.28 2.45
8/8/2022 6:30:00 PM 17.44 63.392 0.172 6.29 4.26 2.43
8/8/2022 6:45:00 PM 17.48 63.464 0.172 6.29 4.59 2.36
8/8/2022 7:00:00 PM 17.4 63.32 0.172 6.29 4.28 2.22
8/8/2022 7:15:00 PM 17.42 63.356 0.172 6.29 4.45 2.22
8/8/2022 7:30:00 PM 17.42 63.356 0.172 6.29 4.34 2.04
8/8/2022 7:45:00 PM 17.38 63.284 0.172 6.29 4.28 2.06
8/8/2022 8:00:00 PM 17.39 63.302 0.172 6.29 4.23 2.09
8/8/2022 8:15:00 PM 17.43 63.374 0.173 6.3 4.13 2.25
8/8/2022 8:30:00 PM 17.36 63.248 0.173 6.3 4.23 2.12
8/8/2022 8:45:00 PM 17.34 63.212 0.173 6.29 4.49 2.06
8/8/2022 9:00:00 PM 17.28 63.104 0.173 6.29 4.21 2.03
8/8/2022 9:15:00 PM 17.24 63.032 0.172 6.28 4.91 2.07
8/8/2022 9:30:00 PM 17.24 63.032 0.172 6.29 4.91 2.01
8/8/2022 9:45:00 PM 17.22 62.996 0.172 6.28 4.36 1.93
8/8/2022 10:00:00 PM 17.19 62.942 0.172 6.28 4.58 2.03
8/8/2022 10:15:00 PM 17.17 62.906 0.172 6.28 4.33 1.94
8/8/2022 10:30:00 PM 17.14 62.852 0.172 6.28 4.32 1.94
8/8/2022 10:45:00 PM 17.11 62.798 0.172 6.28 4.6 1.9
8/8/2022 11:00:00 PM 17.11 62.798 0.172 6.28 4.17 1.96
8/8/2022 11:15:00 PM 17.09 62.762 0.172 6.28 4.14 1.96
8/8/2022 11:30:00 PM 17.02 62.636 0.172 6.28 4.13 1.83
8/8/2022 11:45:00 PM 17.17 62.906 0.173 6.28 4.26 2.17
8/9/2022 12:00:00 AM 17.08 62.744 0.172 6.28 4.49 1.83
8/9/2022 12:15:00 AM 16.97 62.546 0.172 6.27 4.03 1.77
8/9/2022 12:30:00 AM 16.95 62.51 0.172 6.27 4.44 1.74
8/9/2022 12:45:00 AM 17.05 62.69 0.172 6.27 3.96 1.73
8/9/2022 1:00:00 AM 16.9 62.42 0.172 6.27 3.81 1.83
8/9/2022 1:15:00 AM 16.89 62.402 0.172 6.27 4.18 1.65
8/9/2022 1:30:00 AM 16.84 62.312 0.172 6.27 4.12 1.68
8/9/2022 1:45:00 AM 16.87 62.366 0.173 6.27 4.17 1.68
8/9/2022 2:00:00 AM 17.01 62.618 0.173 6.28 4.41 1.69
8/9/2022 2:15:00 AM 16.83 62.294 0.173 6.27 4.1 1.47
8/9/2022 2:30:00 AM 16.84 62.312 0.173 6.27 4.37 1.42
8/9/2022 2:45:00 AM 16.78 62.204 0.174 6.27 4.17 1.32
8/9/2022 3:00:00 AM 16.79 62.222 0.174 6.27 4.19 1.36
8/9/2022 3:15:00 AM 16.9 62.42 0.173 6.27 4.84 1.41
8/9/2022 3:30:00 AM 16.77 62.186 0.172 6.27 4.48 1.56
8/9/2022 3:45:00 AM 16.87 62.366 0.173 6.28 5.15 1.81
8/9/2022 4:00:00 AM 16.8 62.24 0.173 6.27 5.04 1.57
8/9/2022 4:15:00 AM 16.78 62.204 0.173 6.27 5.03 1.58
8/9/2022 4:30:00 AM 16.86 62.348 0.172 6.27 5.23 1.55
8/9/2022 4:45:00 AM 16.79 62.222 0.172 6.27 5.09 1.56
8/9/2022 5:00:00 AM 16.83 62.294 0.172 6.27 4.75 1.59
8/9/2022 5:15:00 AM 16.8 62.24 0.172 6.27 4.58 1.58
8/9/2022 5:30:00 AM 16.77 62.186 0.171 6.26 4.42 1.52
8/9/2022 5:45:00 AM 16.73 62.114 0.171 6.26 4.44 1.48
8/9/2022 6:00:00 AM 16.74 62.132 0.172 6.27 4.63 1.4
8/9/2022 6:15:00 AM 16.69 62.042 0.171 6.26 4.76 1.42
8/9/2022 6:30:00 AM 16.71 62.078 0.171 6.26 4.63 1.51
8/9/2022 6:45:00 AM 16.55 61.79 0.17 6.26 4.53 1.5
8/9/2022 7:00:00 AM 16.62 61.916 0.175 6.28 7.27 1.38
8/9/2022 7:15:00 AM 16.57 61.826 0.174 6.27 5.89 1.34
8/9/2022 7:30:00 AM 16.63 61.934 0.172 6.27 5.39 1.31
8/9/2022 7:45:00 AM 16.67 62.006 0.172 6.26 5.47 1.24
8/9/2022 8:00:00 AM 16.7 62.06 0.171 6.26 5.73 1.48
8/9/2022 8:15:00 AM 16.58 61.844 0.172 6.27 4.94 1.25
8/9/2022 8:30:00 AM 16.48 61.664 0.172 6.26 5.44 1.19
8/9/2022 8:45:00 AM 16.53 61.754 0.171 6.26 5.23 1.35
8/9/2022 9:00:00 AM 16.54 61.772 0.172 6.26 5.83 1.3
8/9/2022 9:15:00 AM 16.5 61.7 0.172 6.26 5.39 1.23
8/9/2022 9:30:00 AM 16.51 61.718 0.171 6.26 4.97 1.3
8/9/2022 9:45:00 AM 16.48 61.664 0.172 6.27 4.95 1.23
8/9/2022 10:00:00 AM 16.49 61.682 0.172 6.26 4.56 1.24
8/9/2022 10:15:00 AM 16.58 61.844 0.171 6.26 5.39 1.34
8/9/2022 10:30:00 AM 16.6 61.88 0.172 6.27 5.03 1.34
8/9/2022 10:45:00 AM 16.6 61.88 0.172 6.26 5.25 1.3
8/9/2022 11:00:00 AM 16.63 61.934 0.172 6.27 4.73 1.36
8/9/2022 11:15:00 AM 16.49 61.682 0.171 6.26 4.68 1.27
8/9/2022 11:30:00 AM 16.65 61.97 0.172 6.26 5.01 1.45
8/9/2022 11:45:00 AM 16.67 62.006 0.172 6.27 5.29 1.49
8/9/2022 12:00:00 PM 16.72 62.096 0.172 6.27 5.59 1.49
8/9/2022 12:15:00 PM 16.6 61.88 0.172 6.27 5.67 1.53
8/9/2022 12:30:00 PM 16.68 62.024 0.172 6.27 5.5 1.45
8/9/2022 12:45:00 PM 16.75 62.15 0.173 6.27 5.25 1.52
8/9/2022 1:00:00 PM 16.8 62.24 0.172 6.28 4.92 1.59
8/9/2022 1:15:00 PM 16.8 62.24 0.173 6.28 5.01 1.62
8/9/2022 1:30:00 PM 16.79 62.222 0.173 6.28 4.68 1.64
8/9/2022 1:45:00 PM 16.84 62.312 0.174 6.29 5.05 1.76
8/9/2022 2:00:00 PM 17.32 63.176 0.175 6.3 5.2 1.83
8/9/2022 2:15:00 PM 17.23 63.014 0.175 6.29 4.57 1.82
8/9/2022 2:30:00 PM 17.58 63.644 0.175 6.3 4.36 2.25
8/9/2022 2:45:00 PM 17.7 63.86 0.175 6.31 4.38 2.5
8/9/2022 3:00:00 PM 17.87 64.166 0.175 6.32 4.85 2.62
8/9/2022 3:15:00 PM 17.83 64.094 0.176 6.33 4.53 2.68
8/9/2022 3:30:00 PM 18 64.4 0.177 6.35 5.97 2.77
8/9/2022 3:45:00 PM 18.27 64.886 0.178 6.36 4.97 2.79
8/9/2022 4:00:00 PM 18.5 65.3 0.179 6.38 4.64 2.81
8/9/2022 4:15:00 PM 18.27 64.886 0.178 6.37 5.27 2.85
8/9/2022 4:30:00 PM 18.45 65.21 0.178 6.39 4.32 2.91
8/9/2022 4:45:00 PM 18.39 65.102 0.178 6.39 4.15 2.91
8/9/2022 5:00:00 PM 18.41 65.138 0.179 6.39 5.55 2.85
8/9/2022 5:15:00 PM 18.47 65.246 0.179 6.39 4.34 2.76
8/9/2022 5:30:00 PM 18.38 65.084 0.179 6.39 5.4 2.69
8/9/2022 5:45:00 PM 18.32 64.976 0.177 6.37 5.57 2.56
8/9/2022 6:00:00 PM 18.37 65.066 0.178 6.37 6.15 2.54
8/9/2022 6:15:00 PM 18.54 65.372 0.178 6.38 4.93 2.61
8/9/2022 6:30:00 PM 18.39 65.102 0.177 6.37 5.36 2.47
8/9/2022 6:45:00 PM 18.52 65.336 0.178 6.37 5.71 2.47
8/9/2022 7:00:00 PM 18.36 65.048 0.176 6.37 4.83 2.45
8/9/2022 7:15:00 PM 18.45 65.21 0.177 6.37 4.9 2.5
8/9/2022 7:30:00 PM 18.34 65.012 0.176 6.36 5.12 2.33
8/9/2022 7:45:00 PM 18.34 65.012 0.176 6.36 5.3 2.3
8/9/2022 8:00:00 PM 18.4 65.12 0.177 6.36 5.05 2.21
8/9/2022 8:15:00 PM 18.3 64.94 0.176 6.35 4.75 2.08
8/9/2022 8:30:00 PM 18.3 64.94 0.176 6.35 5.26 2.21
8/9/2022 8:45:00 PM 18.22 64.796 0.176 6.35 5.27 2.3
8/9/2022 9:00:00 PM 18.2 64.76 0.177 6.35 5.67 2.32
8/9/2022 9:15:00 PM 18.17 64.706 0.176 6.35 4.94 2.28
8/9/2022 9:30:00 PM 18.25 64.85 0.177 6.35 8.16 2.37
8/9/2022 9:45:00 PM 18.12 64.616 0.176 6.34 4.92 2.26
8/9/2022 10:00:00 PM 18.05 64.49 0.175 6.34 4.78 2.23
8/9/2022 10:15:00 PM 18.09 64.562 0.176 6.34 4.73 2.28
8/9/2022 10:30:00 PM 17.99 64.382 0.176 6.34 4.86 2.09
8/9/2022 10:45:00 PM 17.93 64.274 0.175 6.33 4.52 2.1
8/9/2022 11:00:00 PM 17.98 64.364 0.176 6.34 4.61 2.15
8/9/2022 11:15:00 PM 17.97 64.346 0.177 6.33 4.6 2.06
8/9/2022 11:30:00 PM 17.84 64.112 0.176 6.33 4.77 1.99
8/9/2022 11:45:00 PM 17.78 64.004 0.176 6.33 4.88 1.93
8/10/2022 12:00:00 AM 17.7 63.86 0.175 6.32 4.43 1.94
8/10/2022 12:15:00 AM 17.66 63.788 0.176 6.32 4.77 1.95
8/10/2022 12:30:00 AM 17.67 63.806 0.176 6.32 4.69 1.97
8/10/2022 12:45:00 AM 17.6 63.68 0.175 6.33 4.63 2.15
8/10/2022 1:00:00 AM 17.57 63.626 0.175 6.33 4.22 2.15
8/10/2022 1:15:00 AM 17.5 63.5 0.175 6.32 4.7 2.09
8/10/2022 1:30:00 AM 17.45 63.41 0.174 6.32 4.74 2.16
8/10/2022 1:45:00 AM 17.4 63.32 0.174 6.31 4.52 2.18
8/10/2022 2:00:00 AM 17.39 63.302 0.174 6.31 4.44 2.12
8/10/2022 2:15:00 AM 17.37 63.266 0.174 6.31 4.86 2.01
8/10/2022 2:30:00 AM 17.36 63.248 0.174 6.3 4.44 1.95
8/10/2022 2:45:00 AM 17.3 63.14 0.174 6.3 4.87 1.86
8/10/2022 3:00:00 AM 17.22 62.996 0.175 6.3 4.81 1.63
8/10/2022 3:15:00 AM 17.26 63.068 0.175 6.31 4.46 1.91
8/10/2022 3:30:00 AM 17.2 62.96 0.174 6.31 4.49 1.83
8/10/2022 3:45:00 AM 17.17 62.906 0.174 6.31 4.99 1.96
8/10/2022 4:00:00 AM 17.11 62.798 0.173 6.3 4.53 1.93
8/10/2022 4:15:00 AM 17.11 62.798 0.174 6.3 4.77 1.83
8/10/2022 4:30:00 AM 17.05 62.69 0.173 6.3 4.48 1.79
8/10/2022 4:45:00 AM 17.05 62.69 0.174 6.3 4.66 1.75
8/10/2022 5:00:00 AM 16.99 62.582 0.174 6.3 4.49 1.71
8/10/2022 5:15:00 AM 17.04 62.672 0.174 6.3 4.88 1.77
8/10/2022 5:30:00 AM 16.93 62.474 0.173 6.3 5.29 1.68
8/10/2022 5:45:00 AM 16.95 62.51 0.174 6.3 4.85 1.67
8/10/2022 6:00:00 AM 16.96 62.528 0.175 6.3 5.51 1.69
8/10/2022 6:15:00 AM 16.98 62.564 0.175 6.31 6.04 1.62
8/10/2022 6:30:00 AM 16.89 62.402 0.174 6.3 6.4 1.66
8/10/2022 6:45:00 AM 16.91 62.438 0.174 6.31 5.71 1.72
8/10/2022 7:00:00 AM 16.83 62.294 0.173 6.3 5.43 1.63
8/10/2022 7:15:00 AM 16.9 62.42 0.173 6.31 6.34 1.83
8/10/2022 7:30:00 AM 16.8 62.24 0.172 6.3 5.07 1.93
8/10/2022 7:45:00 AM 16.74 62.132 0.174 6.3 5.9 1.91
8/10/2022 8:00:00 AM 16.74 62.132 0.173 6.3 5.32 1.81
8/10/2022 8:15:00 AM 16.68 62.024 0.172 6.3 5.35 1.77
8/10/2022 8:30:00 AM 16.67 62.006 0.172 6.3 5.21 1.83
8/10/2022 8:45:00 AM 16.68 62.024 0.172 6.3 5.4 1.87
8/10/2022 9:00:00 AM 16.68 62.024 0.173 6.31 5.73 1.87
8/10/2022 9:15:00 AM 16.63 61.934 0.173 6.31 5.35 1.97
8/10/2022 9:30:00 AM 16.62 61.916 0.172 6.31 5.3 2
8/10/2022 9:45:00 AM 16.6 61.88 0.172 6.3 5.36 2.04
8/10/2022 10:00:00 AM 16.62 61.916 0.172 6.31 5.33 2.07
8/10/2022 10:15:00 AM 16.6 61.88 0.172 6.31 5.3 2.04
8/10/2022 10:30:00 AM 16.71 62.078 0.172 6.32 5.08 2.39
8/10/2022 10:45:00 AM 16.6 61.88 0.172 6.31 4.65 2.2
8/10/2022 11:00:00 AM 16.57 61.826 0.171 6.31 4.64 2.23
8/10/2022 11:15:00 AM 16.61 61.898 0.172 6.32 5.03 2.25
8/10/2022 11:30:00 AM 16.67 62.006 0.172 6.32 4.77 2.28
8/10/2022 11:45:00 AM 16.58 61.844 0.172 6.31 4.6 2.12
8/10/2022 12:00:00 PM 16.63 61.934 0.172 6.32 4.26 2.3
8/10/2022 12:15:00 PM 16.66 61.988 0.172 6.32 4.53 2.18
8/10/2022 12:30:00 PM 16.73 62.114 0.173 6.32 4.73 2.26
8/10/2022 12:45:00 PM 16.67 62.006 0.173 6.33 4.93 2.28
8/10/2022 1:00:00 PM 16.72 62.096 0.174 6.32 4.79 2.27
8/10/2022 1:15:00 PM 16.89 62.402 0.174 6.33 4.77 2.28
8/10/2022 1:30:00 PM 16.69 62.042 0.173 6.32 4.57 2.14
8/10/2022 1:45:00 PM 16.96 62.528 0.175 6.34 4.63 2.35
8/10/2022 2:00:00 PM 16.91 62.438 0.175 6.34 5.59 2.27
8/10/2022 2:15:00 PM 16.99 62.582 0.175 6.35 4.68 2.37
8/10/2022 2:30:00 PM 17.05 62.69 0.175 6.34 4.51 2.61
8/10/2022 2:45:00 PM 17.13 62.834 0.175 6.34 4.35 2.69
8/10/2022 3:00:00 PM 17.32 63.176 0.176 6.35 4.17 2.83
8/10/2022 3:15:00 PM 17.51 63.518 0.177 6.37 4.5 2.86
8/10/2022 3:30:00 PM -99999.99 -179968 -99999.99 -99999.99 -99999.99 -99999.99
8/16/2022 10:15:00 AM -99999.99 -179968 -99999.99 -99999.99 -99999.99 -99999.99
8/16/2022 10:30:00 AM -99999.99 -179968 -99999.99 -99999.99 -99999.99 -99999.99

These are provisional data and have not been subject to a quality assurance process, but rather are the raw data reported by the instrument.
H: value is above sensor operating range
L: value is below sensor operating range
Offline: station is not reporting data
NC: parameter is not collected at site

Data Availability & Limitations

Uncertainty and potential for error can be associated with environmental monitoring data. Provisional data have not been subject to a quality assurance process, but rather are the raw data reported by the instrument. Data users are cautioned to consider carefully the provisional nature of the information before using it for decisions that concern personal or public safety or the conduct of business that involves substantial monetary or operational consequences.

Approved data are currently available by request by emailing: srbc@srbc.net. Approved data have been subject to a quality assurance process to correct for equipment or fouling drift. Data recorded during equipment malfunctions have been removed.

View Historical Stations that have been discontinued.